createdAt,value
2023-04-16T00:00:42.792Z,992.69
2023-04-16T00:01:42.808Z,992.64
2023-04-16T00:02:42.864Z,992.64
2023-04-16T00:03:43.017Z,992.64
2023-04-16T00:04:42.845Z,992.63
2023-04-16T00:05:42.738Z,992.59
2023-04-16T00:06:43.737Z,992.70
2023-04-16T00:07:42.742Z,992.64
2023-04-16T00:08:42.724Z,992.65
2023-04-16T00:09:42.753Z,992.65
2023-04-16T00:10:42.706Z,992.62
2023-04-16T00:11:42.705Z,992.64
2023-04-16T00:12:42.693Z,992.60
2023-04-16T00:13:42.689Z,992.59
2023-04-16T00:14:42.715Z,992.51
2023-04-16T00:15:42.682Z,992.63
2023-04-16T00:16:42.700Z,992.64
2023-04-16T00:17:42.736Z,992.63
2023-04-16T00:18:42.649Z,992.68
2023-04-16T00:19:42.664Z,992.64
2023-04-16T00:20:42.646Z,992.57
2023-04-16T00:21:42.643Z,992.50
2023-04-16T00:22:42.640Z,992.46
2023-04-16T00:23:42.644Z,992.54
2023-04-16T00:24:42.699Z,992.54
2023-04-16T00:25:42.626Z,992.44
2023-04-16T00:26:42.612Z,992.45
2023-04-16T00:27:42.624Z,992.52
2023-04-16T00:28:42.590Z,992.57
2023-04-16T00:29:42.587Z,992.56
2023-04-16T00:30:42.648Z,992.60
2023-04-16T00:31:42.613Z,992.62
2023-04-16T00:32:42.612Z,992.64
2023-04-16T00:33:42.555Z,992.61
2023-04-16T00:34:42.546Z,992.60
2023-04-16T00:35:42.639Z,992.55
2023-04-16T00:36:42.527Z,992.55
2023-04-16T00:37:42.529Z,992.64
2023-04-16T00:38:42.528Z,992.61
2023-04-16T00:39:42.521Z,992.55
2023-04-16T00:40:42.521Z,992.56
2023-04-16T00:41:42.492Z,992.66
2023-04-16T00:42:42.498Z,992.50
2023-04-16T00:43:42.479Z,992.54
2023-04-16T00:44:42.490Z,992.59
2023-04-16T00:45:42.476Z,992.57
2023-04-16T00:46:42.507Z,992.54
2023-04-16T00:47:42.493Z,992.58
2023-04-16T00:48:42.445Z,992.52
2023-04-16T00:49:42.434Z,992.60
2023-04-16T00:50:42.500Z,992.58
2023-04-16T00:51:42.416Z,992.59
2023-04-16T00:52:42.418Z,992.62
2023-04-16T00:53:42.402Z,992.52
2023-04-16T00:54:42.399Z,992.57
2023-04-16T00:55:42.419Z,992.65
2023-04-16T00:56:42.378Z,992.59
2023-04-16T00:57:42.372Z,992.61
2023-04-16T00:58:42.367Z,992.65
2023-04-16T00:59:42.359Z,992.62
2023-04-16T01:00:42.375Z,992.66
2023-04-16T01:01:42.357Z,992.62
2023-04-16T01:02:42.521Z,992.66
2023-04-16T01:03:42.420Z,992.65
2023-04-16T01:04:42.350Z,992.73
2023-04-16T01:05:42.378Z,992.70
2023-04-16T01:06:42.340Z,992.69
2023-04-16T01:07:42.348Z,992.68
2023-04-16T01:08:42.296Z,992.66
2023-04-16T01:09:42.295Z,992.70
2023-04-16T01:10:42.307Z,992.69
2023-04-16T01:11:42.272Z,992.69
2023-04-16T01:12:42.267Z,992.66
2023-04-16T01:13:42.273Z,992.70
2023-04-16T01:14:42.258Z,992.70
2023-04-16T01:15:42.341Z,992.76
2023-04-16T01:16:42.246Z,992.72
2023-04-16T01:17:42.268Z,992.71
2023-04-16T01:18:42.226Z,992.78
2023-04-16T01:19:42.229Z,992.80
2023-04-16T01:20:42.255Z,992.72
2023-04-16T01:21:42.214Z,992.78
2023-04-16T01:22:42.213Z,992.80
2023-04-16T01:23:42.195Z,992.76
2023-04-16T01:24:42.197Z,992.71
2023-04-16T01:25:42.194Z,992.87
2023-04-16T01:26:42.175Z,992.82
2023-04-16T01:27:42.173Z,992.77
2023-04-16T01:28:42.163Z,992.86
2023-04-16T01:29:42.160Z,992.85
2023-04-16T01:30:42.184Z,992.89
2023-04-16T01:31:42.189Z,992.81
2023-04-16T01:32:42.164Z,992.88
2023-04-16T01:33:42.131Z,992.90
2023-04-16T01:34:42.144Z,992.93
2023-04-16T01:35:42.147Z,992.89
2023-04-16T01:36:42.474Z,992.86
2023-04-16T01:37:42.102Z,992.84
2023-04-16T01:38:42.146Z,992.84
2023-04-16T01:39:42.084Z,992.89
2023-04-16T01:40:42.224Z,992.88
2023-04-16T01:41:42.073Z,992.89
2023-04-16T01:42:42.082Z,992.85
2023-04-16T01:43:42.054Z,992.89
2023-04-16T01:44:42.052Z,992.90
2023-04-16T01:45:42.064Z,992.94
2023-04-16T01:46:42.075Z,992.93
2023-04-16T01:47:42.064Z,992.92
2023-04-16T01:48:42.039Z,992.99
2023-04-16T01:49:42.020Z,992.91
2023-04-16T01:50:42.017Z,992.99
2023-04-16T01:51:42.005Z,992.95
2023-04-16T01:52:41.999Z,992.98
2023-04-16T01:53:41.974Z,992.90
2023-04-16T01:54:41.975Z,992.98
2023-04-16T01:55:42.004Z,993.01
2023-04-16T01:56:41.964Z,992.98
2023-04-16T01:57:41.972Z,993.02
2023-04-16T01:58:41.956Z,993.00
2023-04-16T01:59:41.934Z,992.89
2023-04-16T02:00:41.990Z,992.95
2023-04-16T02:01:41.923Z,992.96
2023-04-16T02:02:42.002Z,993.03
2023-04-16T02:03:42.071Z,992.99
2023-04-16T02:04:41.906Z,993.00
2023-04-16T02:05:41.945Z,993.11
2023-04-16T02:06:41.887Z,993.04
2023-04-16T02:07:41.882Z,993.01
2023-04-16T02:08:41.862Z,992.99
2023-04-16T02:09:41.941Z,992.98
2023-04-16T02:10:41.875Z,993.06
2023-04-16T02:11:41.857Z,993.06
2023-04-16T02:12:41.857Z,993.11
2023-04-16T02:13:41.830Z,993.05
2023-04-16T02:14:41.834Z,993.06
2023-04-16T02:15:41.862Z,993.05
2023-04-16T02:16:41.840Z,993.10
2023-04-16T02:17:41.834Z,993.10
2023-04-16T02:18:41.810Z,993.11
2023-04-16T02:19:41.789Z,993.10
2023-04-16T02:20:41.794Z,993.10
2023-04-16T02:21:41.779Z,993.13
2023-04-16T02:22:41.776Z,993.11
2023-04-16T02:23:41.759Z,993.10
2023-04-16T02:24:41.746Z,993.14
2023-04-16T02:25:41.765Z,993.10
2023-04-16T02:26:41.737Z,993.01
2023-04-16T02:27:41.740Z,993.11
2023-04-16T02:28:41.741Z,993.08
2023-04-16T02:29:41.715Z,993.03
2023-04-16T02:30:41.734Z,993.07
2023-04-16T02:31:41.754Z,993.03
2023-04-16T02:32:41.739Z,992.98
2023-04-16T02:33:41.693Z,993.02
2023-04-16T02:34:41.683Z,993.07
2023-04-16T02:35:41.751Z,992.99
2023-04-16T02:36:41.668Z,993.03
2023-04-16T02:37:41.663Z,992.96
2023-04-16T02:38:41.693Z,992.98
2023-04-16T02:39:41.648Z,992.99
2023-04-16T02:40:41.656Z,992.98
2023-04-16T02:41:41.622Z,992.93
2023-04-16T02:42:41.631Z,992.99
2023-04-16T02:43:41.618Z,992.95
2023-04-16T02:44:41.695Z,992.92
2023-04-16T02:45:41.649Z,992.89
2023-04-16T02:46:41.607Z,992.90
2023-04-16T02:47:41.626Z,992.94
2023-04-16T02:48:41.584Z,992.96
2023-04-16T02:49:41.579Z,993.00
2023-04-16T02:50:41.620Z,992.98
2023-04-16T02:51:41.572Z,992.93
2023-04-16T02:52:41.546Z,992.98
2023-04-16T02:53:42.551Z,992.94
2023-04-16T02:54:41.566Z,992.96
2023-04-16T02:55:41.555Z,992.90
2023-04-16T02:56:41.530Z,992.95
2023-04-16T02:57:41.532Z,992.97
2023-04-16T02:58:41.601Z,992.95
2023-04-16T02:59:41.522Z,992.93
2023-04-16T03:00:41.541Z,992.91
2023-04-16T03:01:41.551Z,992.96
2023-04-16T03:02:41.535Z,993.04
2023-04-16T03:03:41.487Z,992.90
2023-04-16T03:04:41.596Z,993.02
2023-04-16T03:05:41.480Z,993.04
2023-04-16T03:06:41.460Z,992.99
2023-04-16T03:07:41.468Z,993.02
2023-04-16T03:08:41.442Z,993.05
2023-04-16T03:09:42.081Z,992.95
2023-04-16T03:10:41.441Z,992.98
2023-04-16T03:11:41.419Z,993.00
2023-04-16T03:12:41.418Z,992.98
2023-04-16T03:13:41.414Z,993.01
2023-04-16T03:14:41.421Z,993.00
2023-04-16T03:15:41.424Z,993.10
2023-04-16T03:16:41.398Z,993.00
2023-04-16T03:17:41.398Z,993.05
2023-04-16T03:18:41.368Z,992.99
2023-04-16T03:19:41.366Z,993.01
2023-04-16T03:20:41.384Z,993.04
2023-04-16T03:21:41.356Z,992.95
2023-04-16T03:22:41.349Z,992.98
2023-04-16T03:23:41.340Z,992.99
2023-04-16T03:24:41.358Z,992.92
2023-04-16T03:25:41.320Z,992.94
2023-04-16T03:26:41.317Z,992.95
2023-04-16T03:27:41.303Z,992.91
2023-04-16T03:28:41.293Z,992.90
2023-04-16T03:29:41.301Z,993.02
2023-04-16T03:30:41.326Z,993.00
2023-04-16T03:31:41.312Z,992.93
2023-04-16T03:32:41.338Z,992.96
2023-04-16T03:33:41.264Z,992.94
2023-04-16T03:34:41.284Z,992.95
2023-04-16T03:35:41.266Z,993.01
2023-04-16T03:36:41.234Z,993.01
2023-04-16T03:37:41.250Z,993.00
2023-04-16T03:38:41.219Z,993.02
2023-04-16T03:39:41.220Z,992.99
2023-04-16T03:40:41.244Z,992.90
2023-04-16T03:41:41.210Z,992.95
2023-04-16T03:42:41.198Z,992.98
2023-04-16T03:43:41.186Z,993.01
2023-04-16T03:44:41.204Z,993.00
2023-04-16T03:45:41.179Z,993.10
2023-04-16T03:46:41.203Z,993.02
2023-04-16T03:47:41.219Z,993.07
2023-04-16T03:48:41.178Z,993.01
2023-04-16T03:49:41.166Z,993.03
2023-04-16T03:50:41.165Z,993.04
2023-04-16T03:51:41.139Z,993.00
2023-04-16T03:52:41.131Z,993.03
2023-04-16T03:53:41.129Z,993.09
2023-04-16T03:54:41.126Z,993.05
2023-04-16T03:55:41.125Z,993.07
2023-04-16T03:56:41.108Z,993.05
2023-04-16T03:57:41.085Z,993.08
2023-04-16T03:58:42.099Z,993.03
2023-04-16T03:59:41.079Z,993.04
2023-04-16T04:00:41.091Z,993.10
2023-04-16T04:01:41.207Z,993.13
2023-04-16T04:02:41.205Z,993.10
2023-04-16T04:03:41.308Z,993.10
2023-04-16T04:04:41.253Z,993.13
2023-04-16T04:05:41.072Z,993.15
2023-04-16T04:06:41.031Z,993.10
2023-04-16T04:07:41.068Z,993.11
2023-04-16T04:08:41.017Z,993.17
2023-04-16T04:09:41.001Z,993.12
2023-04-16T04:10:41.026Z,993.15
2023-04-16T04:11:40.999Z,993.14
2023-04-16T04:12:40.988Z,993.10
2023-04-16T04:13:40.995Z,993.12
2023-04-16T04:14:40.969Z,993.13
2023-04-16T04:15:41.012Z,993.15
2023-04-16T04:16:41.095Z,993.13
2023-04-16T04:17:41.018Z,993.15
2023-04-16T04:18:41.715Z,993.18
2023-04-16T04:19:47.038Z,993.23
2023-04-16T04:20:42.977Z,993.17
2023-04-16T04:21:41.921Z,993.24
2023-04-16T04:22:40.937Z,993.21
2023-04-16T04:23:40.913Z,993.29
2023-04-16T04:24:40.922Z,993.31
2023-04-16T04:25:40.927Z,993.29
2023-04-16T04:26:40.897Z,993.32
2023-04-16T04:27:40.873Z,993.30
2023-04-16T04:28:40.893Z,993.33
2023-04-16T04:29:40.887Z,993.30
2023-04-16T04:30:40.897Z,993.36
2023-04-16T04:31:40.917Z,993.32
2023-04-16T04:32:40.926Z,993.35
2023-04-16T04:33:40.858Z,993.32
2023-04-16T04:34:40.844Z,993.38
2023-04-16T04:35:40.842Z,993.36
2023-04-16T04:36:40.820Z,993.33
2023-04-16T04:37:40.808Z,993.36
2023-04-16T04:38:40.800Z,993.40
2023-04-16T04:39:40.789Z,993.41
2023-04-16T04:40:40.806Z,993.43
2023-04-16T04:41:40.786Z,993.43
2023-04-16T04:42:40.771Z,993.41
2023-04-16T04:43:40.769Z,993.38
2023-04-16T04:44:40.761Z,993.41
2023-04-16T04:45:40.769Z,993.43
2023-04-16T04:46:40.739Z,993.48
2023-04-16T04:47:40.750Z,993.48
2023-04-16T04:48:40.782Z,993.49
2023-04-16T04:49:40.721Z,993.46
2023-04-16T04:50:41.627Z,993.52
2023-04-16T04:51:40.718Z,993.55
2023-04-16T04:52:41.140Z,993.55
2023-04-16T04:53:41.819Z,993.51
2023-04-16T04:54:40.683Z,993.54
2023-04-16T04:55:40.696Z,993.58
2023-04-16T04:56:40.668Z,993.51
2023-04-16T04:57:40.670Z,993.59
2023-04-16T04:58:40.651Z,993.58
2023-04-16T04:59:40.650Z,993.61
2023-04-16T05:00:40.660Z,993.56
2023-04-16T05:01:40.684Z,993.56
2023-04-16T05:02:40.807Z,993.57
2023-04-16T05:03:40.691Z,993.64
2023-04-16T05:04:40.658Z,993.68
2023-04-16T05:05:40.643Z,993.67
2023-04-16T05:06:40.589Z,993.66
2023-04-16T05:07:40.588Z,993.57
2023-04-16T05:08:40.583Z,993.68
2023-04-16T05:09:40.572Z,993.65
2023-04-16T05:10:40.607Z,993.80
2023-04-16T05:11:40.572Z,993.67
2023-04-16T05:12:40.560Z,993.70
2023-04-16T05:13:41.569Z,993.76
2023-04-16T05:14:40.537Z,993.76
2023-04-16T05:15:40.564Z,993.69
2023-04-16T05:16:40.594Z,993.78
2023-04-16T05:17:40.530Z,993.76
2023-04-16T05:18:40.526Z,993.76
2023-04-16T05:19:40.515Z,993.77
2023-04-16T05:20:40.570Z,993.71
2023-04-16T05:21:40.493Z,993.77
2023-04-16T05:22:40.496Z,993.79
2023-04-16T05:23:40.479Z,993.75
2023-04-16T05:24:40.484Z,993.77
2023-04-16T05:25:40.494Z,993.81
2023-04-16T05:26:40.457Z,993.75
2023-04-16T05:27:40.452Z,993.81
2023-04-16T05:28:40.461Z,993.83
2023-04-16T05:29:40.440Z,993.84
2023-04-16T05:30:40.470Z,993.81
2023-04-16T05:31:40.420Z,993.88
2023-04-16T05:32:40.480Z,993.85
2023-04-16T05:33:40.421Z,993.88
2023-04-16T05:34:40.398Z,993.83
2023-04-16T05:35:40.443Z,993.90
2023-04-16T05:36:40.389Z,993.92
2023-04-16T05:37:40.394Z,993.90
2023-04-16T05:38:40.380Z,993.88
2023-04-16T05:39:40.376Z,993.88
2023-04-16T05:40:40.377Z,993.85
2023-04-16T05:41:40.353Z,993.86
2023-04-16T05:42:40.345Z,994.01
2023-04-16T05:43:41.333Z,993.99
2023-04-16T05:44:40.325Z,993.97
2023-04-16T05:45:40.342Z,993.94
2023-04-16T05:46:40.333Z,994.04
2023-04-16T05:47:40.332Z,993.95
2023-04-16T05:48:40.316Z,993.96
2023-04-16T05:49:40.292Z,994.05
2023-04-16T05:50:40.329Z,994.09
2023-04-16T05:51:40.284Z,994.07
2023-04-16T05:52:40.277Z,994.12
2023-04-16T05:53:40.262Z,994.16
2023-04-16T05:54:40.250Z,994.10
2023-04-16T05:55:40.280Z,994.17
2023-04-16T05:56:40.266Z,994.21
2023-04-16T05:57:40.242Z,994.20
2023-04-16T05:58:40.225Z,994.18
2023-04-16T05:59:40.213Z,994.26
2023-04-16T06:00:40.230Z,994.20
2023-04-16T06:01:40.204Z,994.23
2023-04-16T06:02:40.382Z,994.23
2023-04-16T06:03:41.632Z,994.27
2023-04-16T06:04:41.408Z,994.22
2023-04-16T06:05:40.475Z,994.27
2023-04-16T06:06:41.426Z,994.31
2023-04-16T06:07:40.160Z,994.22
2023-04-16T06:08:40.165Z,994.31
2023-04-16T06:09:40.134Z,994.26
2023-04-16T06:10:40.163Z,994.28
2023-04-16T06:11:40.144Z,994.30
2023-04-16T06:12:40.125Z,994.28
2023-04-16T06:13:40.116Z,994.32
2023-04-16T06:14:40.111Z,994.37
2023-04-16T06:15:40.133Z,994.35
2023-04-16T06:16:40.096Z,994.30
2023-04-16T06:17:40.212Z,994.29
2023-04-16T06:18:40.090Z,994.26
2023-04-16T06:19:40.135Z,994.27
2023-04-16T06:20:40.101Z,994.25
2023-04-16T06:21:40.061Z,994.31
2023-04-16T06:22:40.056Z,994.33
2023-04-16T06:23:40.045Z,994.33
2023-04-16T06:24:40.037Z,994.31
2023-04-16T06:25:40.038Z,994.35
2023-04-16T06:26:40.049Z,994.32
2023-04-16T06:27:40.020Z,994.36
2023-04-16T06:28:40.005Z,994.39
2023-04-16T06:29:41.531Z,994.34
2023-04-16T06:30:42.750Z,994.38
2023-04-16T06:31:40.004Z,994.36
2023-04-16T06:32:40.033Z,994.30
2023-04-16T06:33:39.979Z,994.37
2023-04-16T06:34:39.974Z,994.33
2023-04-16T06:35:39.966Z,994.35
2023-04-16T06:36:39.972Z,994.26
2023-04-16T06:37:39.949Z,994.29
2023-04-16T06:38:39.939Z,994.36
2023-04-16T06:39:39.930Z,994.34
2023-04-16T06:40:39.939Z,994.41
2023-04-16T06:41:39.934Z,994.33
2023-04-16T06:42:39.910Z,994.36
2023-04-16T06:43:39.900Z,994.36
2023-04-16T06:44:39.905Z,994.35
2023-04-16T06:45:39.909Z,994.44
2023-04-16T06:46:39.940Z,994.44
2023-04-16T06:47:39.892Z,994.37
2023-04-16T06:48:39.891Z,994.39
2023-04-16T06:49:39.862Z,994.43
2023-04-16T06:50:39.865Z,994.36
2023-04-16T06:51:39.871Z,994.38
2023-04-16T06:52:39.832Z,994.37
2023-04-16T06:53:39.837Z,994.42
2023-04-16T06:54:39.829Z,994.37
2023-04-16T06:55:39.862Z,994.40
2023-04-16T06:56:39.826Z,994.42
2023-04-16T06:57:39.833Z,994.48
2023-04-16T06:58:39.818Z,994.45
2023-04-16T06:59:39.802Z,994.46
2023-04-16T07:00:39.814Z,994.46
2023-04-16T07:01:39.817Z,994.54
2023-04-16T07:02:39.845Z,994.51
2023-04-16T07:03:39.920Z,994.53
2023-04-16T07:04:39.775Z,994.52
2023-04-16T07:05:39.778Z,994.60
2023-04-16T07:06:39.748Z,994.57
2023-04-16T07:07:39.735Z,994.54
2023-04-16T07:08:39.735Z,994.56
2023-04-16T07:09:39.725Z,994.55
2023-04-16T07:10:39.722Z,994.61
2023-04-16T07:11:39.730Z,994.56
2023-04-16T07:12:39.866Z,994.63
2023-04-16T07:13:39.737Z,994.63
2023-04-16T07:14:39.687Z,994.61
2023-04-16T07:15:39.670Z,994.64
2023-04-16T07:16:39.734Z,994.63
2023-04-16T07:17:39.825Z,994.63
2023-04-16T07:18:39.658Z,994.67
2023-04-16T07:19:39.660Z,994.72
2023-04-16T07:20:39.635Z,994.69
2023-04-16T07:21:39.665Z,994.77
2023-04-16T07:22:39.626Z,994.67
2023-04-16T07:23:39.632Z,994.76
2023-04-16T07:24:40.450Z,994.74
2023-04-16T07:25:42.438Z,994.76
2023-04-16T07:26:40.877Z,994.75
2023-04-16T07:27:39.595Z,994.76
2023-04-16T07:28:39.588Z,994.79
2023-04-16T07:29:39.596Z,994.78
2023-04-16T07:30:39.567Z,994.81
2023-04-16T07:31:39.739Z,994.83
2023-04-16T07:32:39.965Z,994.87
2023-04-16T07:33:39.800Z,994.81
2023-04-16T07:34:39.788Z,994.83
2023-04-16T07:35:39.559Z,994.82
2023-04-16T07:36:39.520Z,994.92
2023-04-16T07:37:39.528Z,994.89
2023-04-16T07:38:39.513Z,994.92
2023-04-16T07:39:39.511Z,994.95
2023-04-16T07:40:39.508Z,994.97
2023-04-16T07:41:39.510Z,994.98
2023-04-16T07:42:39.488Z,994.93
2023-04-16T07:43:39.483Z,995.00
2023-04-16T07:44:39.475Z,995.01
2023-04-16T07:45:40.497Z,995.01
2023-04-16T07:46:46.886Z,994.98
2023-04-16T07:47:41.500Z,995.07
2023-04-16T07:48:39.450Z,994.97
2023-04-16T07:49:39.528Z,994.97
2023-04-16T07:50:39.443Z,995.03
2023-04-16T07:51:39.465Z,995.01
2023-04-16T07:52:39.416Z,994.98
2023-04-16T07:53:39.417Z,995.03
2023-04-16T07:54:39.415Z,995.00
2023-04-16T07:55:39.394Z,995.00
2023-04-16T07:56:39.405Z,995.03
2023-04-16T07:57:39.381Z,995.12
2023-04-16T07:58:39.385Z,995.12
2023-04-16T07:59:39.379Z,995.08
2023-04-16T08:00:39.425Z,995.11
2023-04-16T08:01:39.366Z,995.18
2023-04-16T08:02:39.487Z,995.14
2023-04-16T08:03:39.455Z,995.12
2023-04-16T08:04:39.417Z,995.14
2023-04-16T08:05:40.328Z,995.21
2023-04-16T08:06:39.353Z,995.21
2023-04-16T08:07:39.316Z,995.17
2023-04-16T08:08:39.325Z,995.15
2023-04-16T08:09:39.324Z,995.18
2023-04-16T08:10:39.420Z,995.21
2023-04-16T08:11:39.314Z,995.22
2023-04-16T08:12:39.299Z,995.25
2023-04-16T08:13:39.311Z,995.19
2023-04-16T08:14:39.269Z,995.25
2023-04-16T08:15:39.286Z,995.24
2023-04-16T08:16:39.264Z,995.30
2023-04-16T08:17:39.290Z,995.28
2023-04-16T08:18:39.228Z,995.31
2023-04-16T08:19:39.249Z,995.31
2023-04-16T08:20:39.213Z,995.34
2023-04-16T08:21:39.231Z,995.33
2023-04-16T08:22:39.205Z,995.35
2023-04-16T08:23:39.184Z,995.41
2023-04-16T08:24:39.204Z,995.38
2023-04-16T08:25:39.183Z,995.36
2023-04-16T08:26:39.198Z,995.41
2023-04-16T08:27:39.162Z,995.43
2023-04-16T08:28:39.345Z,995.46
2023-04-16T08:29:40.458Z,995.47
2023-04-16T08:30:39.247Z,995.53
2023-04-16T08:31:39.204Z,995.55
2023-04-16T08:32:40.236Z,995.51
2023-04-16T08:33:39.146Z,995.57
2023-04-16T08:34:39.126Z,995.59
2023-04-16T08:35:39.104Z,995.53
2023-04-16T08:36:39.372Z,995.52
2023-04-16T08:37:39.113Z,995.56
2023-04-16T08:38:39.101Z,995.59
2023-04-16T08:39:39.090Z,995.59
2023-04-16T08:40:39.078Z,995.64
2023-04-16T08:41:39.113Z,995.62
2023-04-16T08:42:39.058Z,995.60
2023-04-16T08:43:39.079Z,995.66
2023-04-16T08:44:39.041Z,995.67
2023-04-16T08:45:39.038Z,995.71
2023-04-16T08:46:39.148Z,995.69
2023-04-16T08:47:39.089Z,995.72
2023-04-16T08:48:39.025Z,995.72
2023-04-16T08:49:39.022Z,995.73
2023-04-16T08:50:39.059Z,995.79
2023-04-16T08:51:38.991Z,995.78
2023-04-16T08:52:39.145Z,995.76
2023-04-16T08:53:38.988Z,995.79
2023-04-16T08:54:39.011Z,995.79
2023-04-16T08:55:39.007Z,995.87
2023-04-16T08:56:40.299Z,995.77
2023-04-16T08:57:38.957Z,995.83
2023-04-16T08:58:38.957Z,995.84
2023-04-16T08:59:38.949Z,995.83
2023-04-16T09:00:38.957Z,995.86
2023-04-16T09:01:38.985Z,995.85
2023-04-16T09:02:39.177Z,995.83
2023-04-16T09:03:39.049Z,995.88
2023-04-16T09:04:39.020Z,995.92
2023-04-16T09:05:38.959Z,995.90
2023-04-16T09:06:38.901Z,995.85
2023-04-16T09:07:38.895Z,995.96
2023-04-16T09:08:38.961Z,995.93
2023-04-16T09:09:39.236Z,995.91
2023-04-16T09:10:39.023Z,995.89
2023-04-16T09:11:40.104Z,995.93
2023-04-16T09:12:38.877Z,995.98
2023-04-16T09:13:39.756Z,995.98
2023-04-16T09:14:39.834Z,995.99
2023-04-16T09:15:38.828Z,995.99
2023-04-16T09:16:39.144Z,995.91
2023-04-16T09:17:38.831Z,995.98
2023-04-16T09:18:38.852Z,996.01
2023-04-16T09:19:38.814Z,996.05
2023-04-16T09:20:38.796Z,996.10
2023-04-16T09:21:38.806Z,996.09
2023-04-16T09:22:38.773Z,996.09
2023-04-16T09:23:38.839Z,996.13
2023-04-16T09:24:38.809Z,996.10
2023-04-16T09:25:38.783Z,996.12
2023-04-16T09:26:38.765Z,996.11
2023-04-16T09:27:38.739Z,996.17
2023-04-16T09:28:38.730Z,996.17
2023-04-16T09:29:38.722Z,996.16
2023-04-16T09:30:38.713Z,996.15
2023-04-16T09:31:38.778Z,996.25
2023-04-16T09:32:38.785Z,996.27
2023-04-16T09:33:38.690Z,996.23
2023-04-16T09:34:38.679Z,996.27
2023-04-16T09:35:38.676Z,996.25
2023-04-16T09:36:38.689Z,996.27
2023-04-16T09:37:38.694Z,996.26
2023-04-16T09:38:38.656Z,996.26
2023-04-16T09:39:38.638Z,996.25
2023-04-16T09:40:39.189Z,996.28
2023-04-16T09:41:38.966Z,996.34
2023-04-16T09:42:38.630Z,996.33
2023-04-16T09:43:38.622Z,996.37
2023-04-16T09:44:38.618Z,996.38
2023-04-16T09:45:39.602Z,996.33
2023-04-16T09:46:38.621Z,996.32
2023-04-16T09:47:38.660Z,996.34
2023-04-16T09:48:38.585Z,996.41
2023-04-16T09:50:38.569Z,996.40
2023-04-16T09:51:38.581Z,996.43
2023-04-16T09:52:38.586Z,996.46
2023-04-16T09:53:38.556Z,996.39
2023-04-16T09:54:38.542Z,996.45
2023-04-16T09:55:38.542Z,996.46
2023-04-16T09:56:38.544Z,996.48
2023-04-16T09:57:38.554Z,996.46
2023-04-16T09:58:38.537Z,996.49
2023-04-16T09:59:38.550Z,996.52
2023-04-16T10:00:42.203Z,996.51
2023-04-16T10:01:39.547Z,996.54
2023-04-16T10:02:38.635Z,996.53
2023-04-16T10:03:38.640Z,996.62
2023-04-16T10:04:38.563Z,996.59
2023-04-16T10:05:38.477Z,996.62
2023-04-16T10:06:38.504Z,996.67
2023-04-16T10:07:38.460Z,996.64
2023-04-16T10:08:38.457Z,996.60
2023-04-16T10:09:38.456Z,996.60
2023-04-16T10:10:38.482Z,996.67
2023-04-16T10:11:38.470Z,996.69
2023-04-16T10:12:38.427Z,996.70
2023-04-16T10:13:38.432Z,996.72
2023-04-16T10:14:38.404Z,996.66
2023-04-16T10:15:38.403Z,996.68
2023-04-16T10:16:38.461Z,996.71
2023-04-16T10:17:38.502Z,996.69
2023-04-16T10:18:38.430Z,996.69
2023-04-16T10:19:38.381Z,996.71
2023-04-16T10:20:38.371Z,996.70
2023-04-16T10:21:38.375Z,996.63
2023-04-16T10:22:38.359Z,996.69
2023-04-16T10:23:38.339Z,996.70
2023-04-16T10:24:38.350Z,996.67
2023-04-16T10:25:38.331Z,996.74
2023-04-16T10:26:38.374Z,996.70
2023-04-16T10:27:38.333Z,996.70
2023-04-16T10:28:38.440Z,996.69
2023-04-16T10:29:38.308Z,996.73
2023-04-16T10:30:38.345Z,996.75
2023-04-16T10:31:38.310Z,996.66
2023-04-16T10:32:38.331Z,996.72
2023-04-16T10:33:38.263Z,996.78
2023-04-16T10:34:38.265Z,996.72
2023-04-16T10:35:38.258Z,996.77
2023-04-16T10:36:38.415Z,996.77
2023-04-16T10:37:38.271Z,996.78
2023-04-16T10:38:38.239Z,996.76
2023-04-16T10:39:38.220Z,996.75
2023-04-16T10:40:38.220Z,996.78
2023-04-16T10:41:38.237Z,996.75
2023-04-16T10:42:38.228Z,996.77
2023-04-16T10:43:38.199Z,996.73
2023-04-16T10:44:38.239Z,996.78
2023-04-16T10:45:38.172Z,996.80
2023-04-16T10:46:38.214Z,996.78
2023-04-16T10:47:38.191Z,996.80
2023-04-16T10:48:46.780Z,996.83
2023-04-16T10:49:40.163Z,996.81
2023-04-16T10:50:38.157Z,996.78
2023-04-16T10:51:38.154Z,996.77
2023-04-16T10:52:38.140Z,996.83
2023-04-16T10:53:38.133Z,996.81
2023-04-16T10:54:38.112Z,996.75
2023-04-16T10:55:39.056Z,996.75
2023-04-16T10:56:38.127Z,996.82
2023-04-16T10:57:38.096Z,996.81
2023-04-16T10:58:38.093Z,996.83
2023-04-16T10:59:38.084Z,996.79
2023-04-16T11:00:38.078Z,996.85
2023-04-16T11:01:38.137Z,996.80
2023-04-16T11:02:38.380Z,996.81
2023-04-16T11:03:38.191Z,996.86
2023-04-16T11:04:38.204Z,996.84
2023-04-16T11:05:38.035Z,996.85
2023-04-16T11:06:38.060Z,996.80
2023-04-16T11:07:38.018Z,996.82
2023-04-16T11:08:51.166Z,996.82
2023-04-16T11:09:40.010Z,996.82
2023-04-16T11:10:38.000Z,996.71
2023-04-16T11:11:38.082Z,996.74
2023-04-16T11:12:39.568Z,996.75
2023-04-16T11:13:38.857Z,996.77
2023-04-16T11:14:37.971Z,996.76
2023-04-16T11:15:37.958Z,996.75
2023-04-16T11:16:37.991Z,996.74
2023-04-16T11:17:38.015Z,996.82
2023-04-16T11:18:37.939Z,996.81
2023-04-16T11:19:38.953Z,996.78
2023-04-16T11:20:37.929Z,996.79
2023-04-16T11:21:37.938Z,996.78
2023-04-16T11:22:37.956Z,996.75
2023-04-16T11:23:39.005Z,996.77
2023-04-16T11:24:38.030Z,996.76
2023-04-16T11:25:37.912Z,996.77
2023-04-16T11:26:37.901Z,996.76
2023-04-16T11:27:37.881Z,996.78
2023-04-16T11:28:37.910Z,996.79
2023-04-16T11:29:40.027Z,996.78
2023-04-16T11:30:38.349Z,996.79
2023-04-16T11:31:39.074Z,996.83
2023-04-16T11:32:38.351Z,996.80
2023-04-16T11:33:38.152Z,996.79
2023-04-16T11:34:38.013Z,996.79
2023-04-16T11:35:40.050Z,996.84
2023-04-16T11:36:37.819Z,996.79
2023-04-16T11:37:38.194Z,996.80
2023-04-16T11:38:37.792Z,996.86
2023-04-16T11:43:01.822Z,996.91
2023-04-16T11:44:01.811Z,996.89
2023-04-16T11:45:01.767Z,996.85
2023-04-16T11:46:05.481Z,996.87
2023-04-16T11:47:02.793Z,996.92
2023-04-16T11:48:01.767Z,996.89
2023-04-16T11:49:01.735Z,996.90
2023-04-16T11:50:01.767Z,996.85
2023-04-16T11:51:01.770Z,996.88
2023-04-16T11:52:02.909Z,996.76
2023-04-16T11:53:02.834Z,996.85
2023-04-16T11:54:02.847Z,996.86
2023-04-16T11:55:02.866Z,996.91
2023-04-16T11:56:02.811Z,996.89
2023-04-16T11:57:02.854Z,996.90
2023-04-16T11:58:02.807Z,996.84
2023-04-16T11:59:02.796Z,996.81
2023-04-16T12:00:04.493Z,996.82
2023-04-16T12:01:03.779Z,996.91
2023-04-16T12:02:02.871Z,996.85
2023-04-16T12:03:02.981Z,996.86
2023-04-16T12:04:03.260Z,996.82
2023-04-16T12:05:03.871Z,996.85
2023-04-16T12:06:02.770Z,996.85
2023-04-16T12:07:02.830Z,996.85
2023-04-16T12:08:03.775Z,996.83
2023-04-16T12:09:02.755Z,996.86
2023-04-16T12:10:02.719Z,996.89
2023-04-16T12:11:02.785Z,996.92
2023-04-16T12:12:02.719Z,996.80
2023-04-16T12:13:02.691Z,996.82
2023-04-16T12:14:02.692Z,996.87
2023-04-16T12:15:02.712Z,996.84
2023-04-16T12:16:02.729Z,996.78
2023-04-16T12:17:02.741Z,996.77
2023-04-16T12:18:02.711Z,996.78
2023-04-16T12:19:02.673Z,996.83
2023-04-16T12:20:02.657Z,996.82
2023-04-16T12:21:02.643Z,996.74
2023-04-16T12:22:02.653Z,996.85
2023-04-16T12:23:02.633Z,996.76
2023-04-16T12:24:02.619Z,996.84
2023-04-16T12:25:02.620Z,996.80
2023-04-16T12:26:03.082Z,996.78
2023-04-16T12:27:02.610Z,996.85
2023-04-16T12:28:02.585Z,996.79
2023-04-16T12:29:02.590Z,996.84
2023-04-16T12:30:02.579Z,996.77
2023-04-16T12:31:02.623Z,996.78
2023-04-16T12:32:02.595Z,996.77
2023-04-16T12:33:02.566Z,996.86